createdAt,value
2019-05-22T00:02:36.950Z,99.90
2019-05-22T00:05:15.363Z,99.90
2019-05-22T00:07:44.076Z,99.90
2019-05-22T00:10:14.391Z,99.90
2019-05-22T00:12:46.765Z,99.90
2019-05-22T00:15:16.006Z,99.90
2019-05-22T00:17:44.960Z,99.90
2019-05-22T00:20:13.575Z,99.90
2019-05-22T00:22:44.731Z,99.90
2019-05-22T00:25:14.825Z,99.90
2019-05-22T00:27:42.968Z,99.90
2019-05-22T00:30:13.274Z,99.90
2019-05-22T00:32:41.453Z,99.90
2019-05-22T00:35:10.779Z,99.90
2019-05-22T00:37:37.786Z,99.90
2019-05-22T00:40:07.685Z,99.90
2019-05-22T00:42:39.531Z,99.90
2019-05-22T00:45:09.828Z,99.90
2019-05-22T00:47:37.110Z,99.90
2019-05-22T00:50:07.923Z,99.90
2019-05-22T00:53:09.771Z,99.90
2019-05-22T00:55:41.122Z,99.90
2019-05-22T00:58:18.431Z,99.90
2019-05-22T01:00:53.256Z,99.90
2019-05-22T01:03:21.564Z,99.90
2019-05-22T01:05:50.611Z,99.90
2019-05-22T01:08:17.993Z,99.90
2019-05-22T01:10:49.624Z,99.90
2019-05-22T01:13:17.370Z,99.90
2019-05-22T01:15:46.201Z,99.90
2019-05-22T01:18:14.033Z,99.90
2019-05-22T01:20:41.834Z,99.90
2019-05-22T01:23:12.960Z,99.90
2019-05-22T01:25:42.185Z,99.90
2019-05-22T01:28:10.045Z,99.90
2019-05-22T01:30:50.167Z,99.90
2019-05-22T01:33:20.624Z,99.90
2019-05-22T01:36:05.721Z,99.90
2019-05-22T01:38:34.949Z,99.90
2019-05-22T01:41:07.490Z,99.90
2019-05-22T01:43:34.904Z,99.90
2019-05-22T01:46:03.293Z,99.90
2019-05-22T01:48:35.383Z,99.90
2019-05-22T01:51:05.125Z,99.90
2019-05-22T01:53:36.968Z,99.90
2019-05-22T01:56:07.886Z,99.90
2019-05-22T01:58:36.605Z,99.90
2019-05-22T02:01:08.948Z,99.90
2019-05-22T02:03:37.985Z,99.90
2019-05-22T02:06:06.769Z,99.90
2019-05-22T02:08:40.852Z,99.90
2019-05-22T02:11:11.584Z,99.90
2019-05-22T02:13:43.341Z,99.90
2019-05-22T02:16:10.761Z,99.90
2019-05-22T02:18:40.095Z,99.90
2019-05-22T02:21:08.637Z,99.90
2019-05-22T02:23:37.358Z,99.90
2019-05-22T02:26:05.316Z,99.90
2019-05-22T02:28:32.715Z,99.90
2019-05-22T02:31:00.605Z,99.90
2019-05-22T02:33:29.207Z,99.90
2019-05-22T02:35:56.197Z,99.90
2019-05-22T02:38:25.501Z,99.90
2019-05-22T02:40:54.437Z,99.90
2019-05-22T02:43:23.928Z,99.90
2019-05-22T02:45:51.438Z,99.90
2019-05-22T02:48:20.162Z,99.90
2019-05-22T02:50:47.793Z,99.90
2019-05-22T02:53:15.403Z,99.90
2019-05-22T02:55:42.719Z,99.90
2019-05-22T02:58:12.376Z,99.90
2019-05-22T03:00:55.432Z,99.90
2019-05-22T03:03:22.244Z,99.90
2019-05-22T03:05:49.468Z,99.90
2019-05-22T03:08:17.494Z,99.90
2019-05-22T03:10:45.396Z,99.90
2019-05-22T03:13:12.589Z,99.90
2019-05-22T03:15:40.199Z,99.90
2019-05-22T03:18:07.912Z,99.90
2019-05-22T03:20:36.507Z,99.90
2019-05-22T03:23:11.546Z,99.90
2019-05-22T03:25:40.580Z,99.90
2019-05-22T03:28:09.094Z,99.90
2019-05-22T03:30:39.926Z,99.90
2019-05-22T03:33:07.286Z,99.90
2019-05-22T03:35:45.226Z,99.90
2019-05-22T03:38:12.116Z,99.90
2019-05-22T03:40:40.009Z,99.90
2019-05-22T03:43:15.964Z,99.90
2019-05-22T03:45:42.748Z,99.90
2019-05-22T03:48:10.276Z,99.90
2019-05-22T03:50:39.904Z,99.90
2019-05-22T03:53:14.789Z,99.90
2019-05-22T03:55:41.894Z,99.90
2019-05-22T03:58:09.134Z,99.90
2019-05-22T04:00:36.439Z,99.90
2019-05-22T04:03:04.358Z,99.90
2019-05-22T04:05:31.276Z,99.90
2019-05-22T04:08:02.181Z,99.90
2019-05-22T04:10:40.799Z,99.90
2019-05-22T04:13:06.321Z,99.90
2019-05-22T04:15:33.849Z,99.90
2019-05-22T04:18:12.108Z,99.90
2019-05-22T04:20:39.720Z,99.90
2019-05-22T04:23:08.569Z,99.90
2019-05-22T04:25:35.800Z,99.90
2019-05-22T04:28:03.535Z,99.90
2019-05-22T04:30:31.650Z,99.90
2019-05-22T04:32:59.872Z,99.90
2019-05-22T04:35:26.948Z,99.90
2019-05-22T04:37:53.926Z,99.90
2019-05-22T04:40:51.074Z,99.90
2019-05-22T04:43:20.877Z,99.90
2019-05-22T04:45:48.644Z,99.90
2019-05-22T04:48:16.431Z,99.90
2019-05-22T04:50:43.880Z,99.90
2019-05-22T04:53:10.771Z,99.90
2019-05-22T04:55:37.482Z,99.90
2019-05-22T04:58:06.531Z,99.90
2019-05-22T05:00:34.955Z,99.90
2019-05-22T05:03:04.758Z,99.90
2019-05-22T05:05:36.455Z,99.90
2019-05-22T05:08:03.474Z,99.90
2019-05-22T05:10:30.618Z,99.90
2019-05-22T05:12:57.939Z,99.90
2019-05-22T05:15:25.102Z,99.90
2019-05-22T05:17:52.021Z,99.90
2019-05-22T05:20:22.598Z,99.90
2019-05-22T05:22:48.325Z,99.90
2019-05-22T05:25:17.185Z,99.90
2019-05-22T05:27:44.568Z,99.90
2019-05-22T05:30:13.217Z,99.90
2019-05-22T05:32:41.120Z,99.90
2019-05-22T05:35:08.612Z,99.90
2019-05-22T05:37:36.333Z,99.90
2019-05-22T05:40:24.072Z,99.90
2019-05-22T05:42:52.009Z,99.90
2019-05-22T05:45:18.948Z,99.90
2019-05-22T05:47:46.213Z,99.90
2019-05-22T05:50:14.337Z,99.90
2019-05-22T05:52:42.154Z,99.90
2019-05-22T05:55:11.137Z,99.90
2019-05-22T05:58:27.040Z,99.90
2019-05-22T06:01:06.313Z,99.90
2019-05-22T06:03:37.028Z,99.90
2019-05-22T06:06:51.274Z,99.90
2019-05-22T06:09:19.326Z,99.90
2019-05-22T06:11:48.356Z,99.90
2019-05-22T06:14:19.901Z,99.90
2019-05-22T06:17:40.130Z,99.90
2019-05-22T06:20:11.034Z,99.90
2019-05-22T06:22:39.856Z,99.90
2019-05-22T06:25:07.749Z,99.90
2019-05-22T06:27:52.133Z,99.90
2019-05-22T06:30:40.599Z,99.90
2019-05-22T06:33:29.097Z,99.90
2019-05-22T06:35:56.374Z,99.90
2019-05-22T06:39:00.314Z,99.90
2019-05-22T06:41:32.181Z,99.90
2019-05-22T06:44:26.657Z,99.90
2019-05-22T06:46:53.970Z,99.90
2019-05-22T06:49:41.390Z,99.90
2019-05-22T06:52:08.673Z,99.90
2019-05-22T06:54:36.252Z,99.90
2019-05-22T06:57:06.792Z,99.90
2019-05-22T06:59:33.785Z,99.90
2019-05-22T07:02:02.143Z,99.90
2019-05-22T07:04:29.171Z,99.90
2019-05-22T07:06:56.672Z,99.90
2019-05-22T07:09:24.903Z,99.90
2019-05-22T07:11:52.211Z,99.90
2019-05-22T07:14:19.458Z,99.90
2019-05-22T07:16:48.418Z,99.90
2019-05-22T07:19:16.275Z,99.90
2019-05-22T07:21:43.393Z,99.90
2019-05-22T07:24:11.000Z,99.90
2019-05-22T07:26:38.729Z,99.90
2019-05-22T07:29:05.753Z,99.90
2019-05-22T07:31:33.072Z,99.90
2019-05-22T07:34:00.413Z,99.90
2019-05-22T07:36:29.924Z,99.90
2019-05-22T07:38:57.127Z,99.90
2019-05-22T07:41:24.201Z,99.90
2019-05-22T07:43:51.754Z,99.90
2019-05-22T07:46:19.060Z,99.90
2019-05-22T07:48:46.282Z,99.90
2019-05-22T07:51:14.982Z,99.90
2019-05-22T07:53:42.272Z,99.90
2019-05-22T07:56:10.997Z,99.90
2019-05-22T07:58:38.228Z,99.90
2019-05-22T08:01:05.733Z,99.90
2019-05-22T08:03:33.426Z,99.90
2019-05-22T08:06:00.733Z,99.90
2019-05-22T08:08:31.113Z,99.90
2019-05-22T08:10:58.231Z,99.90
2019-05-22T08:13:26.635Z,99.90
2019-05-22T08:15:54.027Z,99.90
2019-05-22T08:18:21.112Z,99.90
2019-05-22T08:20:47.967Z,99.80
2019-05-22T08:23:14.992Z,98.80
2019-05-22T08:25:41.678Z,97.30
2019-05-22T08:28:09.576Z,96.00
2019-05-22T08:30:36.592Z,94.80
2019-05-22T08:33:08.990Z,94.70
2019-05-22T08:35:36.197Z,94.40
2019-05-22T08:38:04.351Z,95.10
2019-05-22T08:40:32.055Z,93.80
2019-05-22T08:42:59.529Z,95.40
2019-05-22T08:45:28.176Z,95.10
2019-05-22T08:47:56.171Z,94.70
2019-05-22T08:50:23.976Z,94.30
2019-05-22T08:52:51.116Z,94.70
2019-05-22T08:55:19.382Z,93.90
2019-05-22T08:57:47.004Z,91.70
2019-05-22T09:00:18.706Z,93.40
2019-05-22T09:02:46.229Z,91.40
2019-05-22T09:05:13.353Z,90.80
2019-05-22T09:07:41.503Z,88.30
2019-05-22T09:10:08.601Z,87.60
2019-05-22T09:12:35.859Z,83.00
2019-05-22T09:15:03.049Z,83.30
2019-05-22T09:17:30.085Z,80.50
2019-05-22T09:19:57.829Z,79.30
2019-05-22T09:22:40.091Z,79.00
2019-05-22T09:24:56.168Z,77.10
2019-05-22T09:27:23.298Z,74.30
2019-05-22T09:29:50.020Z,70.90
2019-05-22T09:32:16.713Z,69.70
2019-05-22T09:34:43.524Z,67.60
2019-05-22T09:37:11.233Z,66.60
2019-05-22T09:39:38.056Z,64.10
2019-05-22T09:42:04.880Z,62.60
2019-05-22T09:44:32.225Z,63.20
2019-05-22T09:46:59.029Z,61.50
2019-05-22T09:49:26.041Z,60.90
2019-05-22T09:51:54.289Z,63.10
2019-05-22T09:54:21.383Z,61.80
2019-05-22T09:56:48.618Z,62.10
2019-05-22T09:59:15.628Z,61.50
2019-05-22T10:01:42.453Z,63.20
2019-05-22T10:04:09.170Z,63.50
2019-05-22T10:06:36.211Z,60.30
2019-05-22T10:09:05.740Z,60.10
2019-05-22T10:11:32.884Z,61.60
2019-05-22T10:14:00.118Z,62.10
2019-05-22T10:16:27.187Z,61.20
2019-05-22T10:18:54.719Z,59.70
2019-05-22T10:21:21.659Z,58.50
2019-05-22T10:23:48.551Z,57.30
2019-05-22T10:26:15.231Z,57.50
2019-05-22T10:28:41.968Z,56.80
2019-05-22T10:31:09.836Z,57.00
2019-05-22T10:33:38.418Z,57.80
2019-05-22T10:36:05.883Z,58.50
2019-05-22T10:38:32.830Z,59.70
2019-05-22T10:40:59.956Z,58.30
2019-05-22T10:43:27.335Z,58.00
2019-05-22T10:45:54.902Z,58.00
2019-05-22T10:48:21.700Z,56.50
2019-05-22T10:50:48.708Z,56.30
2019-05-22T10:53:32.431Z,54.20
2019-05-22T10:55:45.149Z,55.80
2019-05-22T10:58:11.977Z,55.10
2019-05-22T11:00:39.374Z,54.30
2019-05-22T11:03:06.813Z,54.70
2019-05-22T11:05:35.231Z,54.70
2019-05-22T11:08:02.347Z,55.40
2019-05-22T11:10:29.761Z,54.20
2019-05-22T11:12:57.017Z,55.20
2019-05-22T11:15:24.524Z,53.90
2019-05-22T11:17:51.749Z,54.00
2019-05-22T11:20:20.214Z,54.80
2019-05-22T11:22:48.408Z,55.60
2019-05-22T11:25:16.840Z,54.90
2019-05-22T11:27:44.668Z,53.30
2019-05-22T11:30:13.202Z,52.60
2019-05-22T11:32:40.143Z,52.00
2019-05-22T11:35:08.056Z,50.60
2019-05-22T11:37:35.409Z,51.00
2019-05-22T11:40:03.540Z,51.50
2019-05-22T11:42:30.261Z,50.90
2019-05-22T11:44:57.201Z,52.10
2019-05-22T11:47:24.183Z,53.50
2019-05-22T11:49:50.976Z,54.90
2019-05-22T11:52:19.022Z,55.60
2019-05-22T11:54:46.388Z,56.80
2019-05-22T11:57:13.844Z,56.20
2019-05-22T11:59:40.725Z,55.80
2019-05-22T12:02:09.388Z,54.50
2019-05-22T12:04:47.506Z,54.10
2019-05-22T12:07:06.519Z,55.10
2019-05-22T12:09:33.820Z,54.70
2019-05-22T12:12:00.930Z,55.20
2019-05-22T12:14:28.152Z,55.10
2019-05-22T12:16:55.615Z,55.10
2019-05-22T12:19:22.475Z,56.90
2019-05-22T12:21:49.580Z,58.10
2019-05-22T12:24:27.214Z,58.20
2019-05-22T12:26:46.013Z,56.80
2019-05-22T12:29:16.841Z,58.10
2019-05-22T12:31:42.300Z,57.10
2019-05-22T12:34:09.415Z,56.60
2019-05-22T12:36:36.253Z,55.40
2019-05-22T12:39:06.037Z,56.10
2019-05-22T12:41:33.558Z,56.70
2019-05-22T12:44:00.784Z,56.80
2019-05-22T12:46:28.398Z,55.80
2019-05-22T12:48:56.016Z,56.50
2019-05-22T12:51:23.938Z,57.70
2019-05-22T12:53:51.546Z,57.50
2019-05-22T12:56:18.882Z,57.00
2019-05-22T12:58:46.287Z,57.90
2019-05-22T13:01:14.011Z,57.20
2019-05-22T13:03:41.307Z,58.00
2019-05-22T13:06:08.095Z,57.70
2019-05-22T13:08:35.977Z,58.00
2019-05-22T13:11:05.284Z,59.30
2019-05-22T13:13:31.752Z,59.30
2019-05-22T13:15:59.577Z,58.80
2019-05-22T13:18:28.352Z,58.70
2019-05-22T13:20:56.620Z,58.70
2019-05-22T13:23:28.225Z,58.50
2019-05-22T13:25:55.684Z,58.80
2019-05-22T13:28:24.117Z,59.20
2019-05-22T13:30:54.179Z,59.70
2019-05-22T13:33:25.393Z,58.40
2019-05-22T13:35:54.169Z,58.80
2019-05-22T13:38:21.166Z,58.70
2019-05-22T13:40:49.467Z,58.90
2019-05-22T13:43:17.246Z,57.90
2019-05-22T13:45:44.504Z,57.50
2019-05-22T13:48:11.642Z,58.50
2019-05-22T13:50:38.652Z,58.40
2019-05-22T13:53:07.697Z,58.20
2019-05-22T13:55:35.156Z,57.90
2019-05-22T13:58:02.677Z,57.70
2019-05-22T14:00:30.189Z,57.40
2019-05-22T14:02:57.445Z,56.90
2019-05-22T14:05:25.386Z,56.90
2019-05-22T14:07:52.113Z,56.40
2019-05-22T14:10:22.009Z,56.40
2019-05-22T14:12:48.921Z,55.70
2019-05-22T14:15:16.116Z,55.60
2019-05-22T14:17:43.046Z,56.00
2019-05-22T14:20:11.565Z,56.40
2019-05-22T14:22:38.600Z,55.70
2019-05-22T14:25:06.131Z,55.80
2019-05-22T14:27:33.043Z,56.40
2019-05-22T14:30:00.292Z,57.00
2019-05-22T14:32:29.668Z,55.90
2019-05-22T14:34:56.293Z,55.50
2019-05-22T14:37:23.488Z,55.80
2019-05-22T14:39:50.532Z,55.00
2019-05-22T14:42:19.076Z,53.60
2019-05-22T14:44:46.450Z,53.90
2019-05-22T14:47:16.304Z,54.30
2019-05-22T14:49:41.868Z,53.50
2019-05-22T14:52:09.133Z,54.10
2019-05-22T14:54:36.062Z,52.80
2019-05-22T14:57:03.249Z,53.60
2019-05-22T14:59:30.848Z,53.70
2019-05-22T15:01:57.668Z,53.90
2019-05-22T15:04:25.444Z,53.00
2019-05-22T15:06:52.553Z,53.20
2019-05-22T15:09:19.482Z,52.80
2019-05-22T15:11:46.398Z,53.10
2019-05-22T15:14:13.815Z,54.00
2019-05-22T15:16:40.709Z,53.10
2019-05-22T15:19:08.413Z,53.90
2019-05-22T15:21:35.686Z,54.30
2019-05-22T15:24:04.004Z,53.50
2019-05-22T15:26:31.313Z,53.60
2019-05-22T15:28:58.010Z,52.90
2019-05-22T15:31:25.176Z,52.40
2019-05-22T15:33:52.463Z,53.30
2019-05-22T15:36:22.036Z,52.90
2019-05-22T15:38:49.822Z,52.90
2019-05-22T15:41:16.948Z,52.80
2019-05-22T15:43:49.973Z,52.10
2019-05-22T15:46:15.085Z,52.00
2019-05-22T15:48:44.477Z,53.20
2019-05-22T15:51:11.761Z,52.70
2019-05-22T15:53:39.089Z,52.70
2019-05-22T15:56:08.058Z,52.50
2019-05-22T15:58:36.958Z,51.80
2019-05-22T16:01:08.175Z,51.70
2019-05-22T16:03:35.148Z,52.30
2019-05-22T16:06:02.754Z,53.00
2019-05-22T16:08:30.186Z,53.00
2019-05-22T16:11:00.313Z,53.20
2019-05-22T16:13:31.732Z,53.00
2019-05-22T16:16:01.358Z,53.10
2019-05-22T16:18:31.063Z,53.20
2019-05-22T16:21:00.157Z,53.50
2019-05-22T16:23:29.797Z,54.10
2019-05-22T16:25:56.596Z,53.00
2019-05-22T16:28:24.191Z,52.90
2019-05-22T16:30:51.973Z,53.30
2019-05-22T16:33:20.966Z,53.40
2019-05-22T16:35:47.901Z,52.80
2019-05-22T16:38:15.214Z,53.10
2019-05-22T16:40:42.704Z,52.60
2019-05-22T16:43:09.750Z,52.80
2019-05-22T16:45:37.144Z,52.80
2019-05-22T16:48:05.461Z,53.40
2019-05-22T16:50:32.584Z,53.10
2019-05-22T16:53:05.004Z,53.80
2019-05-22T16:55:32.373Z,53.30
2019-05-22T16:57:59.716Z,54.00
2019-05-22T17:00:26.918Z,53.90
2019-05-22T17:02:54.088Z,53.00
2019-05-22T17:05:21.724Z,53.00
2019-05-22T17:07:49.486Z,53.30
2019-05-22T17:10:17.724Z,53.90
2019-05-22T17:12:45.653Z,54.20
2019-05-22T17:15:14.445Z,54.50
2019-05-22T17:17:42.174Z,55.00
2019-05-22T17:20:11.628Z,55.10
2019-05-22T17:22:38.529Z,55.20
2019-05-22T17:25:06.749Z,55.10
2019-05-22T17:27:34.829Z,54.90
2019-05-22T17:30:03.098Z,54.60
2019-05-22T17:32:30.665Z,54.90
2019-05-22T17:34:57.468Z,55.50
2019-05-22T17:37:26.229Z,55.70
2019-05-22T17:39:53.161Z,56.60
2019-05-22T17:42:22.658Z,56.70
2019-05-22T17:44:50.759Z,55.80
2019-05-22T17:47:19.302Z,55.50
2019-05-22T17:49:48.144Z,56.70
2019-05-22T17:52:18.086Z,55.80
2019-05-22T17:54:46.593Z,55.40
2019-05-22T17:57:15.540Z,55.80
2019-05-22T17:59:42.965Z,56.50
2019-05-22T18:02:12.863Z,57.00
2019-05-22T18:04:40.586Z,57.50
2019-05-22T18:07:08.091Z,58.60
2019-05-22T18:09:35.521Z,59.10
2019-05-22T18:12:04.553Z,58.40
2019-05-22T18:14:31.893Z,58.20
2019-05-22T18:16:58.700Z,59.30
2019-05-22T18:19:27.012Z,58.90
2019-05-22T18:21:53.745Z,59.30
2019-05-22T18:24:21.021Z,59.30
2019-05-22T18:26:47.737Z,59.00
2019-05-22T18:29:14.657Z,59.70
2019-05-22T18:31:42.128Z,59.30
2019-05-22T18:34:08.929Z,60.30
2019-05-22T18:36:35.961Z,61.50
2019-05-22T18:39:04.743Z,63.30
2019-05-22T18:41:31.656Z,65.80
2019-05-22T18:43:59.459Z,68.60
2019-05-22T18:46:26.896Z,70.20
2019-05-22T18:48:54.163Z,72.10
2019-05-22T18:51:21.580Z,73.20
2019-05-22T18:53:48.953Z,75.40
2019-05-22T18:56:16.389Z,78.00
2019-05-22T18:58:43.495Z,81.10
2019-05-22T19:01:11.275Z,84.60
2019-05-22T19:03:38.541Z,88.20
2019-05-22T19:06:05.669Z,90.70
2019-05-22T19:08:33.262Z,91.90
2019-05-22T19:11:00.168Z,93.90
2019-05-22T19:13:27.185Z,95.20
2019-05-22T19:15:54.200Z,96.70
2019-05-22T19:18:21.318Z,96.70
2019-05-22T19:20:48.223Z,96.30
2019-05-22T19:23:15.579Z,96.20
2019-05-22T19:25:42.399Z,96.30
2019-05-22T19:28:09.114Z,96.40
2019-05-22T19:30:36.127Z,96.70
2019-05-22T19:33:03.200Z,97.30
2019-05-22T19:35:30.296Z,98.10
2019-05-22T19:37:57.597Z,98.60
2019-05-22T19:40:24.899Z,99.50
2019-05-22T19:42:51.742Z,99.90
2019-05-22T19:45:20.089Z,99.90
2019-05-22T19:47:53.704Z,99.90
2019-05-22T19:50:23.592Z,99.90
2019-05-22T19:52:51.892Z,99.90
2019-05-22T19:55:19.128Z,99.90
2019-05-22T19:57:47.391Z,99.90
2019-05-22T20:00:14.953Z,99.90
2019-05-22T20:02:42.889Z,99.90
2019-05-22T20:05:10.619Z,99.90
2019-05-22T20:07:38.518Z,99.90
2019-05-22T20:10:06.273Z,99.90
2019-05-22T20:12:34.394Z,99.90
2019-05-22T20:15:01.593Z,99.90
2019-05-22T20:17:28.936Z,99.90
2019-05-22T20:19:55.656Z,99.90
2019-05-22T20:22:23.677Z,99.90
2019-05-22T20:24:50.809Z,99.90
2019-05-22T20:27:18.115Z,99.90
2019-05-22T20:29:45.205Z,99.90
2019-05-22T20:32:13.552Z,99.90
2019-05-22T20:34:40.679Z,99.90
2019-05-22T20:37:07.501Z,99.90
2019-05-22T20:39:35.435Z,99.90
2019-05-22T20:42:03.821Z,99.90
2019-05-22T20:44:31.040Z,99.90
2019-05-22T20:46:57.945Z,99.90
2019-05-22T20:49:25.869Z,99.90
2019-05-22T20:51:52.960Z,99.90
2019-05-22T20:54:20.461Z,99.90
2019-05-22T20:56:49.531Z,99.90
2019-05-22T20:59:16.254Z,99.90
2019-05-22T21:01:46.052Z,99.90
2019-05-22T21:04:13.277Z,99.90
2019-05-22T21:06:46.839Z,99.90
2019-05-22T21:09:14.595Z,99.90
2019-05-22T21:11:42.184Z,99.90
2019-05-22T21:14:10.211Z,99.90
2019-05-22T21:16:39.225Z,99.90
2019-05-22T21:19:06.507Z,99.90
2019-05-22T21:21:33.439Z,99.90
2019-05-22T21:24:09.948Z,99.90
2019-05-22T21:26:31.551Z,99.90
2019-05-22T21:28:58.979Z,99.90
2019-05-22T21:31:26.230Z,99.90
2019-05-22T21:33:54.604Z,99.90
2019-05-22T21:36:22.323Z,99.90
2019-05-22T21:38:49.326Z,99.90
2019-05-22T21:41:20.291Z,99.90
2019-05-22T21:43:47.619Z,99.90
2019-05-22T21:46:14.857Z,99.90
2019-05-22T21:48:42.188Z,99.90
2019-05-22T21:51:09.300Z,99.90
2019-05-22T21:53:36.493Z,99.90
2019-05-22T21:56:06.390Z,99.90
2019-05-22T21:58:33.821Z,99.90
2019-05-22T22:01:28.132Z,99.90
2019-05-22T22:04:00.482Z,99.90
2019-05-22T22:06:27.942Z,99.90
2019-05-22T22:08:55.280Z,99.90
2019-05-22T22:11:25.268Z,99.90
2019-05-22T22:13:54.296Z,99.90
2019-05-22T22:16:22.041Z,99.90
2019-05-22T22:18:49.583Z,99.90
2019-05-22T22:21:16.873Z,99.90
2019-05-22T22:23:44.745Z,99.90
2019-05-22T22:26:24.833Z,99.90
2019-05-22T22:28:41.456Z,99.90
2019-05-22T22:31:10.688Z,99.90
2019-05-22T22:33:38.876Z,99.90
2019-05-22T22:36:07.284Z,99.90
2019-05-22T22:38:35.645Z,99.90
2019-05-22T22:41:06.242Z,99.90
2019-05-22T22:43:36.984Z,99.90
2019-05-22T22:46:10.085Z,99.90
2019-05-22T22:48:39.395Z,99.90
2019-05-22T22:51:08.901Z,99.90
2019-05-22T22:53:35.596Z,99.90
2019-05-22T22:56:05.349Z,99.90
2019-05-22T22:58:33.188Z,99.90
2019-05-22T23:01:03.348Z,99.90
2019-05-22T23:03:31.543Z,99.90
2019-05-22T23:05:58.671Z,99.90
2019-05-22T23:11:06.343Z,99.90
2019-05-22T23:13:34.857Z,99.90
2019-05-22T23:16:02.579Z,99.90
2019-05-22T23:19:03.734Z,99.90
2019-05-22T23:21:32.015Z,99.90
2019-05-22T23:23:58.089Z,99.90
2019-05-22T23:26:25.876Z,99.90
2019-05-22T23:28:52.989Z,99.90
2019-05-22T23:31:20.701Z,99.90
2019-05-22T23:33:47.732Z,99.90
2019-05-22T23:36:15.754Z,99.90
2019-05-22T23:38:44.574Z,99.90
2019-05-22T23:41:12.161Z,99.90
2019-05-22T23:43:41.181Z,99.90
2019-05-22T23:46:09.501Z,99.90
2019-05-22T23:48:38.308Z,99.90
2019-05-22T23:51:05.326Z,99.90
2019-05-22T23:53:34.218Z,99.90
2019-05-22T23:56:02.962Z,99.90
2019-05-22T23:58:30.083Z,99.90
